Edmonton, Australia
Current Conditions -  °F | °C
As of 12:00 AM on Thursday 27 Nov 2014 (Local Time) from YBCS Reporting Station
Rain Showers Rain Showers  
Wind Chill: 75°   Ceiling: 3500
Heat Index: 75°   Visibility: 6mi
Dew Point: 72°   Wind: 10mph
Humidity: 89%   Direction: 180°S
Pressure: 29.88"   Gusts: NA
Location:  17.02°S, 145.74°E
Report Text: YBCS 261400Z 18009KT 9999 VCSH SCT025 BKN035 24/22 Q1012 RESHRA
Loading
Personal Weather Stations






























Interactive Weather Map New forecast layout! Learn more

10-Day Weather Forecast

Advertisements
Track Severe Weather on mobile